createdAt,value
2022-10-10T00:01:05.407Z,18.95
2022-10-10T00:06:31.899Z,18.94
2022-10-10T00:11:54.961Z,18.93
2022-10-10T00:17:16.627Z,18.91
2022-10-10T00:22:38.364Z,18.89
2022-10-10T00:28:04.319Z,18.89
2022-10-10T00:33:26.051Z,18.87
2022-10-10T00:38:48.511Z,18.86
2022-10-10T00:44:13.748Z,18.84
2022-10-10T00:49:38.380Z,18.83
2022-10-10T00:55:00.095Z,18.82
2022-10-10T01:00:21.763Z,18.82
2022-10-10T01:05:45.310Z,18.82
2022-10-10T01:11:22.186Z,18.81
2022-10-10T01:17:06.709Z,18.81
2022-10-10T01:23:12.907Z,18.76
2022-10-10T01:29:08.590Z,18.79
2022-10-10T01:34:44.575Z,18.75
2022-10-10T01:40:18.373Z,18.76
2022-10-10T01:45:52.424Z,18.79
2022-10-10T01:51:22.913Z,18.75
2022-10-10T01:57:14.933Z,18.75
2022-10-10T02:02:52.347Z,18.74
2022-10-10T02:08:29.102Z,18.72
2022-10-10T02:14:02.595Z,18.71
2022-10-10T02:19:25.766Z,18.68
2022-10-10T02:24:47.467Z,18.67
2022-10-10T02:30:10.223Z,18.68
2022-10-10T02:35:38.592Z,18.68
2022-10-10T02:41:04.173Z,18.65
2022-10-10T02:46:25.769Z,18.62
2022-10-10T02:51:47.429Z,18.64
2022-10-10T02:57:09.172Z,18.62
2022-10-10T03:02:30.862Z,18.60
2022-10-10T03:07:52.558Z,18.61
2022-10-10T03:13:14.314Z,18.58
2022-10-10T03:18:36.038Z,18.58
2022-10-10T03:23:57.750Z,18.58
2022-10-10T03:29:19.462Z,18.56
2022-10-10T03:34:41.107Z,18.56
2022-10-10T03:40:02.780Z,18.56
2022-10-10T03:45:24.737Z,18.55
2022-10-10T03:50:46.387Z,18.55
2022-10-10T03:56:08.087Z,18.54
2022-10-10T04:01:30.927Z,18.53
2022-10-10T04:06:52.635Z,18.53
2022-10-10T04:12:14.327Z,18.52
2022-10-10T04:17:36.038Z,18.50
2022-10-10T04:22:57.815Z,18.50
2022-10-10T04:28:19.638Z,18.49
2022-10-10T04:33:41.341Z,18.48
2022-10-10T04:39:03.125Z,18.48
2022-10-10T04:44:24.802Z,18.48
2022-10-10T04:49:46.499Z,18.47
2022-10-10T04:55:08.299Z,18.45
2022-10-10T05:00:29.945Z,18.43
2022-10-10T05:05:52.275Z,18.43
2022-10-10T05:11:14.196Z,18.43
2022-10-10T05:16:35.811Z,18.42
2022-10-10T05:21:57.470Z,18.43
2022-10-10T05:27:19.139Z,18.42
2022-10-10T05:32:41.154Z,18.39
2022-10-10T05:38:03.110Z,18.39
2022-10-10T05:43:24.824Z,18.40
2022-10-10T05:48:46.487Z,18.40
2022-10-10T05:54:08.132Z,18.42
2022-10-10T05:59:30.240Z,18.40
2022-10-10T06:04:51.896Z,18.40
2022-10-10T06:10:13.553Z,18.38
2022-10-10T06:15:35.356Z,18.42
2022-10-10T06:21:01.952Z,18.45
2022-10-10T06:26:23.672Z,18.45
2022-10-10T06:31:45.259Z,18.46
2022-10-10T06:37:08.666Z,18.46
2022-10-10T06:42:30.365Z,18.51
2022-10-10T06:47:52.092Z,18.53
2022-10-10T06:53:13.802Z,18.57
2022-10-10T06:58:35.736Z,18.62
2022-10-10T07:03:57.417Z,18.67
2022-10-10T07:09:20.248Z,18.74
2022-10-10T07:14:41.899Z,19.11
2022-10-10T07:20:04.027Z,19.68
2022-10-10T07:25:25.790Z,20.17
2022-10-10T07:30:47.552Z,20.10
2022-10-10T07:36:09.258Z,20.47
2022-10-10T07:41:31.002Z,20.73
2022-10-10T07:46:52.632Z,20.65
2022-10-10T07:52:14.278Z,20.56
2022-10-10T07:57:36.365Z,20.50
2022-10-10T08:02:58.717Z,20.66
2022-10-10T08:08:20.342Z,20.71
2022-10-10T08:13:42.617Z,20.46
2022-10-10T08:19:04.824Z,20.18
2022-10-10T08:24:26.617Z,19.93
2022-10-10T08:29:48.302Z,19.76
2022-10-10T08:35:10.060Z,19.62
2022-10-10T08:40:32.166Z,19.52
2022-10-10T08:45:57.863Z,19.44
2022-10-10T08:51:31.962Z,19.37
2022-10-10T08:56:57.393Z,19.31
2022-10-10T09:08:34.470Z,19.23
2022-10-10T09:14:27.795Z,19.20
2022-10-10T09:20:11.884Z,19.16
2022-10-10T09:25:42.633Z,19.13
2022-10-10T09:31:26.804Z,19.09
2022-10-10T09:36:49.054Z,19.05
2022-10-10T09:42:14.041Z,19.03
2022-10-10T09:47:35.772Z,18.99
2022-10-10T09:52:58.482Z,18.98
2022-10-10T09:58:25.649Z,18.98
2022-10-10T10:04:27.294Z,18.98
2022-10-10T10:09:52.422Z,18.95
2022-10-10T10:15:26.472Z,18.97
2022-10-10T10:20:51.112Z,18.96
2022-10-10T10:26:46.417Z,18.96
2022-10-10T10:32:29.090Z,18.96
2022-10-10T10:37:50.712Z,18.94
2022-10-10T10:43:15.121Z,18.94
2022-10-10T10:48:41.128Z,18.94
2022-10-10T10:54:30.566Z,18.95
2022-10-10T11:05:45.434Z,18.91
2022-10-10T11:11:22.170Z,18.93
2022-10-10T11:22:37.249Z,18.90
2022-10-10T11:28:13.737Z,18.90
2022-10-10T11:33:59.727Z,18.89
2022-10-10T11:39:30.399Z,18.86
2022-10-10T11:45:17.279Z,18.87
2022-10-10T11:50:43.658Z,18.87
2022-10-10T11:56:12.291Z,18.88
2022-10-10T12:01:39.145Z,18.88
2022-10-10T12:07:06.722Z,18.88
2022-10-10T12:12:35.018Z,18.89
2022-10-10T12:17:57.124Z,18.88
2022-10-10T12:23:29.759Z,18.89
2022-10-10T12:28:59.679Z,18.90
2022-10-10T12:35:01.132Z,18.88
2022-10-10T12:40:23.089Z,18.89
2022-10-10T12:45:53.796Z,18.89
2022-10-10T12:51:22.032Z,18.88
2022-10-10T12:56:44.838Z,18.87
2022-10-10T13:02:16.717Z,18.87
2022-10-10T13:07:39.452Z,18.84
2022-10-10T13:13:07.003Z,18.84
2022-10-10T13:18:38.500Z,18.83
2022-10-10T13:24:04.930Z,18.81
2022-10-10T13:29:29.244Z,18.81
2022-10-10T13:34:55.741Z,18.81
2022-10-10T13:40:18.607Z,18.79
2022-10-10T13:45:56.625Z,18.79
2022-10-10T13:51:19.379Z,18.77
2022-10-10T13:56:41.693Z,18.75
2022-10-10T14:02:07.103Z,18.75
2022-10-10T14:07:30.858Z,18.76
2022-10-10T14:12:54.622Z,18.75
2022-10-10T14:18:19.566Z,18.76
2022-10-10T14:23:41.251Z,18.73
2022-10-10T14:29:03.302Z,18.72
2022-10-10T14:34:25.007Z,18.71
2022-10-10T14:39:47.191Z,18.71
2022-10-10T14:45:12.926Z,18.68
2022-10-10T14:50:38.111Z,18.69
2022-10-10T14:55:59.786Z,18.66
2022-10-10T15:01:21.843Z,18.65
2022-10-10T15:07:08.372Z,18.64
2022-10-10T15:12:25.343Z,18.62
2022-10-10T15:17:47.133Z,18.62
2022-10-10T15:23:09.217Z,18.57
2022-10-10T15:28:31.629Z,18.58
2022-10-10T15:33:55.477Z,18.56
2022-10-10T15:39:17.175Z,18.55
2022-10-10T15:44:44.983Z,18.52
2022-10-10T15:50:08.021Z,18.52
2022-10-10T15:55:29.659Z,18.65
2022-10-10T16:00:51.384Z,18.81
2022-10-10T16:06:13.348Z,18.99
2022-10-10T16:11:37.125Z,19.13
2022-10-10T16:17:01.806Z,19.29
2022-10-10T16:22:23.521Z,19.36
2022-10-10T16:27:45.194Z,19.36
2022-10-10T16:33:06.867Z,19.35
2022-10-10T16:38:28.513Z,19.32
2022-10-10T16:43:50.294Z,19.29
2022-10-10T16:49:16.425Z,19.26
2022-10-10T16:54:38.189Z,19.21
2022-10-10T16:59:59.881Z,19.17
2022-10-10T17:05:21.546Z,19.12
2022-10-10T17:10:44.692Z,19.08
2022-10-10T17:16:40.332Z,19.11
2022-10-10T17:21:50.213Z,19.20
2022-10-10T17:27:11.967Z,19.30
2022-10-10T17:32:33.651Z,19.34
2022-10-10T17:37:56.194Z,19.38
2022-10-10T17:43:17.877Z,19.41
2022-10-10T17:48:41.249Z,19.49
2022-10-10T17:54:03.553Z,19.62
2022-10-10T17:59:25.272Z,19.75
2022-10-10T18:04:47.322Z,19.85
2022-10-10T18:10:09.419Z,19.93
2022-10-10T18:15:31.104Z,20.01
2022-10-10T18:20:52.821Z,20.07
2022-10-10T18:26:17.991Z,20.11
2022-10-10T18:31:39.732Z,20.14
2022-10-10T18:37:01.474Z,20.19
2022-10-10T18:42:23.253Z,20.32
2022-10-10T18:47:44.916Z,20.49
2022-10-10T18:53:06.628Z,20.64
2022-10-10T18:58:29.891Z,20.70
2022-10-10T19:03:51.646Z,20.73
2022-10-10T19:09:15.477Z,20.69
2022-10-10T19:14:37.652Z,20.67
2022-10-10T19:19:59.312Z,20.64
2022-10-10T19:25:21.018Z,20.63
2022-10-10T19:30:44.655Z,20.61
2022-10-10T19:36:09.674Z,20.60
2022-10-10T19:41:31.399Z,20.59
2022-10-10T19:46:54.539Z,20.58
2022-10-10T19:52:16.329Z,20.54
2022-10-10T19:57:38.068Z,20.53
2022-10-10T20:02:59.818Z,20.55
2022-10-10T20:08:21.476Z,20.54
2022-10-10T20:13:43.224Z,20.52
2022-10-10T20:19:05.128Z,20.47
2022-10-10T20:24:26.805Z,20.46
2022-10-10T20:29:48.477Z,20.36
2022-10-10T20:35:10.200Z,20.34
2022-10-10T20:40:32.302Z,20.29
2022-10-10T20:45:53.942Z,20.23
2022-10-10T20:51:15.600Z,20.16
2022-10-10T20:56:37.237Z,20.06
2022-10-10T21:01:59.042Z,19.99
2022-10-10T21:07:20.749Z,19.92
2022-10-10T21:12:42.418Z,19.85
2022-10-10T21:18:04.157Z,19.79
2022-10-10T21:23:25.816Z,19.73
2022-10-10T21:28:49.986Z,19.67
2022-10-10T21:34:13.962Z,19.63
2022-10-10T21:39:35.773Z,19.58
2022-10-10T21:44:57.458Z,19.55
2022-10-10T21:50:19.187Z,19.52
2022-10-10T21:55:40.916Z,19.48
2022-10-10T22:01:08.586Z,19.46
2022-10-10T22:06:31.405Z,19.43
2022-10-10T22:11:53.202Z,19.40
2022-10-10T22:17:14.848Z,19.37
2022-10-10T22:22:43.138Z,19.36
2022-10-10T22:28:06.359Z,19.34
2022-10-10T22:33:28.164Z,19.33
2022-10-10T22:38:49.844Z,19.32
2022-10-10T22:44:11.791Z,19.30
2022-10-10T22:49:35.123Z,19.29
2022-10-10T22:54:56.813Z,19.28
2022-10-10T23:00:18.737Z,19.26
2022-10-10T23:05:42.218Z,19.22
2022-10-10T23:11:04.018Z,19.19
2022-10-10T23:16:25.676Z,19.17
2022-10-10T23:21:47.291Z,19.16
2022-10-10T23:27:09.001Z,19.14
2022-10-10T23:32:30.734Z,19.15
2022-10-10T23:37:52.376Z,19.12
2022-10-10T23:43:14.020Z,19.13
2022-10-10T23:48:35.698Z,19.11
2022-10-10T23:53:57.364Z,19.06
2022-10-10T23:59:19.065Z,19.05
